createdAt,value
2022-11-10T00:03:40.361Z,99475.16
2022-11-10T00:06:10.804Z,99461.72
2022-11-10T00:08:37.595Z,99469.25
2022-11-10T00:11:08.302Z,99473.16
2022-11-10T00:13:56.659Z,99471.56
2022-11-10T00:16:42.115Z,99424.81
2022-11-10T00:19:09.089Z,99440.19
2022-11-10T00:21:37.286Z,99475.56
2022-11-10T00:24:04.710Z,99480.13
2022-11-10T00:26:31.947Z,99454.00
2022-11-10T00:28:58.761Z,99486.25
2022-11-10T00:31:25.537Z,99487.53
2022-11-10T00:33:52.252Z,99482.81
2022-11-10T00:36:19.040Z,99480.38
2022-11-10T00:38:45.786Z,99440.66
2022-11-10T00:41:13.183Z,99455.94
2022-11-10T00:43:39.964Z,99466.69
2022-11-10T00:46:06.702Z,99457.44
2022-11-10T00:48:33.517Z,99473.75
2022-11-10T00:51:00.270Z,99470.63
2022-11-10T00:53:27.006Z,99450.31
2022-11-10T00:55:53.829Z,99494.69
2022-11-10T00:58:20.713Z,99483.28
2022-11-10T01:00:47.621Z,99443.41
2022-11-10T01:03:16.058Z,99480.06
2022-11-10T01:05:43.443Z,99501.88
2022-11-10T01:08:10.835Z,99493.59
2022-11-10T01:10:37.644Z,99507.84
2022-11-10T01:13:04.372Z,99485.22
2022-11-10T01:15:31.311Z,99497.16
2022-11-10T01:17:58.005Z,99503.69
2022-11-10T01:20:25.862Z,99503.72
2022-11-10T01:22:52.727Z,99475.97
2022-11-10T01:25:19.573Z,99479.63
2022-11-10T01:27:46.621Z,99489.22
2022-11-10T01:30:13.444Z,99517.03
2022-11-10T01:32:40.292Z,99511.91
2022-11-10T01:35:08.531Z,99517.84
2022-11-10T01:37:35.513Z,99515.13
2022-11-10T01:40:02.689Z,99520.47
2022-11-10T01:42:44.533Z,99499.47
2022-11-10T01:45:23.565Z,99537.63
2022-11-10T01:47:52.580Z,99512.63
2022-11-10T01:50:22.123Z,99538.41
2022-11-10T01:52:52.422Z,99530.91
2022-11-10T01:55:19.276Z,99520.25
2022-11-10T01:57:46.296Z,99530.91
2022-11-10T02:00:13.410Z,99544.78
2022-11-10T02:02:46.662Z,99534.63
2022-11-10T02:05:13.679Z,99539.09
2022-11-10T02:07:40.802Z,99561.53
2022-11-10T02:10:16.263Z,99552.91
2022-11-10T02:12:44.131Z,99549.50
2022-11-10T02:15:14.503Z,99559.69
2022-11-10T02:17:42.445Z,99514.94
2022-11-10T02:20:12.224Z,99527.19
2022-11-10T02:22:39.100Z,99557.13
2022-11-10T02:25:06.672Z,99558.09
2022-11-10T02:27:33.402Z,99535.19
2022-11-10T02:30:01.767Z,99551.16
2022-11-10T02:32:28.888Z,99561.16
2022-11-10T02:34:55.741Z,99523.91
2022-11-10T02:37:22.533Z,99554.25
2022-11-10T02:39:49.265Z,99569.19
2022-11-10T02:42:16.132Z,99558.38
2022-11-10T02:44:43.175Z,99562.38
2022-11-10T02:47:10.194Z,99570.94
2022-11-10T02:49:36.914Z,99578.25
2022-11-10T02:52:03.889Z,99570.13
2022-11-10T02:54:30.652Z,99573.13
2022-11-10T02:56:57.335Z,99583.38
2022-11-10T02:59:24.076Z,99591.91
2022-11-10T03:01:50.831Z,99576.63
2022-11-10T03:04:17.553Z,99591.59
2022-11-10T03:06:44.408Z,99573.53
2022-11-10T03:09:11.242Z,99557.00
2022-11-10T03:11:37.974Z,99590.72
2022-11-10T03:14:04.731Z,99581.97
2022-11-10T03:16:31.514Z,99582.06
2022-11-10T03:18:58.225Z,99567.38
2022-11-10T03:21:24.934Z,99583.72
2022-11-10T03:23:51.640Z,99598.03
2022-11-10T03:26:18.372Z,99591.88
2022-11-10T03:28:45.080Z,99577.25
2022-11-10T03:31:11.813Z,99612.00
2022-11-10T03:33:38.535Z,99612.13
2022-11-10T03:36:05.522Z,99621.38
2022-11-10T03:38:32.214Z,99618.09
2022-11-10T03:43:45.621Z,99620.53
2022-11-10T03:46:12.602Z,99615.19
2022-11-10T03:48:39.311Z,99622.72
2022-11-10T03:51:06.193Z,99622.97
2022-11-10T03:53:33.031Z,99621.72
2022-11-10T03:56:04.541Z,99645.41
2022-11-10T03:58:31.443Z,99648.81
2022-11-10T04:00:58.236Z,99657.06
2022-11-10T04:03:25.867Z,99655.81
2022-11-10T04:06:11.461Z,99654.06
2022-11-10T04:08:56.814Z,99670.94
2022-11-10T04:11:41.915Z,99621.47
2022-11-10T04:14:27.782Z,99659.50
2022-11-10T04:16:55.052Z,99668.50
2022-11-10T04:19:21.843Z,99662.81
2022-11-10T04:21:48.719Z,99639.94
2022-11-10T04:24:16.290Z,99661.72
2022-11-10T04:26:44.100Z,99669.00
2022-11-10T04:29:12.349Z,99676.72
2022-11-10T04:31:41.090Z,99676.38
2022-11-10T04:34:09.867Z,99644.84
2022-11-10T04:36:39.053Z,99687.94
2022-11-10T04:39:06.774Z,99692.75
2022-11-10T04:41:33.960Z,99681.38
2022-11-10T04:44:01.473Z,99681.09
2022-11-10T04:46:32.151Z,99689.84
2022-11-10T04:48:59.823Z,99682.91
2022-11-10T04:51:31.497Z,99702.59
2022-11-10T04:53:58.882Z,99707.94
2022-11-10T04:56:26.644Z,99721.44
2022-11-10T04:58:54.492Z,99717.19
2022-11-10T05:01:27.577Z,99715.34
2022-11-10T05:03:55.421Z,99725.72
2022-11-10T05:06:22.873Z,99714.00
2022-11-10T05:08:50.108Z,99718.56
2022-11-10T05:11:16.960Z,99693.13
2022-11-10T05:13:45.116Z,99719.63
2022-11-10T05:16:12.447Z,99724.13
2022-11-10T05:18:39.158Z,99724.88
2022-11-10T05:21:06.084Z,99721.91
2022-11-10T05:23:38.778Z,99733.56
2022-11-10T05:26:16.485Z,99741.75
2022-11-10T05:28:45.053Z,99735.78
2022-11-10T05:31:12.644Z,99734.88
2022-11-10T05:33:39.595Z,99738.78
2022-11-10T05:36:07.852Z,99751.34
2022-11-10T05:38:40.316Z,99751.28
2022-11-10T05:41:09.793Z,99729.78
2022-11-10T05:43:36.494Z,99756.19
2022-11-10T05:46:03.337Z,99747.75
2022-11-10T05:48:30.014Z,99756.81
2022-11-10T05:50:56.692Z,99756.88
2022-11-10T05:53:23.873Z,99769.94
2022-11-10T05:55:50.837Z,99736.75
2022-11-10T05:58:17.639Z,99779.34
2022-11-10T06:00:44.327Z,99770.84
2022-11-10T06:03:17.049Z,99763.63
2022-11-10T06:05:44.461Z,99797.94
2022-11-10T06:08:11.557Z,99783.28
2022-11-10T06:10:39.196Z,99804.38
2022-11-10T06:13:06.636Z,99806.81
2022-11-10T06:15:33.674Z,99811.41
2022-11-10T06:18:00.625Z,99818.09
2022-11-10T06:20:27.432Z,99827.84
2022-11-10T06:23:08.083Z,99825.69
2022-11-10T06:25:36.570Z,99820.13
2022-11-10T06:28:04.447Z,99834.50
2022-11-10T06:30:33.736Z,99838.25
2022-11-10T06:33:00.567Z,99840.25
2022-11-10T06:35:27.775Z,99850.94
2022-11-10T06:38:06.101Z,99860.78
2022-11-10T06:40:33.845Z,99865.91
2022-11-10T06:43:01.604Z,99871.13
2022-11-10T06:45:28.970Z,99873.56
2022-11-10T06:48:04.801Z,99873.69
2022-11-10T06:50:32.222Z,99882.66
2022-11-10T06:53:00.384Z,99886.75
2022-11-10T06:55:27.298Z,99895.28
2022-11-10T06:57:54.493Z,99875.84
2022-11-10T07:00:22.193Z,99904.78
2022-11-10T07:02:48.955Z,99903.84
2022-11-10T07:05:15.861Z,99917.72
2022-11-10T07:07:42.646Z,99914.81
2022-11-10T07:10:09.687Z,99916.66
2022-11-10T07:12:36.595Z,99906.81
2022-11-10T07:15:03.943Z,99919.34
2022-11-10T07:17:30.673Z,99919.75
2022-11-10T07:19:57.521Z,99913.91
2022-11-10T07:22:25.062Z,99908.09
2022-11-10T07:24:51.805Z,99925.84
2022-11-10T07:27:18.648Z,99917.19
2022-11-10T07:29:45.449Z,99923.81
2022-11-10T07:32:12.166Z,99927.97
2022-11-10T07:34:38.851Z,99922.09
2022-11-10T07:37:05.861Z,99943.47
2022-11-10T07:39:32.608Z,99938.88
2022-11-10T07:41:59.298Z,99956.81
2022-11-10T07:44:27.842Z,99948.69
2022-11-10T07:46:54.596Z,99946.31
2022-11-10T07:49:21.382Z,99954.06
2022-11-10T07:51:48.053Z,99953.03
2022-11-10T07:54:14.752Z,99942.47
2022-11-10T07:56:42.522Z,99943.06
2022-11-10T07:59:09.392Z,99962.06
2022-11-10T08:01:36.084Z,99968.41
2022-11-10T08:04:02.841Z,99943.06
2022-11-10T08:06:34.910Z,99971.00
2022-11-10T08:09:02.832Z,99975.00
2022-11-10T08:11:29.534Z,99974.78
2022-11-10T08:13:56.196Z,99961.69
2022-11-10T08:16:22.988Z,99987.31
2022-11-10T08:18:49.720Z,99988.28
2022-11-10T08:21:16.381Z,100005.94
2022-11-10T08:23:43.167Z,99991.47
2022-11-10T08:26:09.853Z,99999.50
2022-11-10T08:28:36.623Z,100008.28
2022-11-10T08:31:05.684Z,99997.69
2022-11-10T08:33:33.050Z,99990.03
2022-11-10T08:36:01.320Z,100013.50
2022-11-10T08:38:28.051Z,100005.47
2022-11-10T08:40:57.588Z,100026.56
2022-11-10T08:43:25.131Z,100023.06
2022-11-10T08:45:58.858Z,100012.34
2022-11-10T08:48:25.711Z,100017.25
2022-11-10T08:50:52.518Z,100031.22
2022-11-10T08:53:22.859Z,100044.91
2022-11-10T08:55:51.132Z,100049.09
2022-11-10T08:58:20.096Z,100049.84
2022-11-10T09:00:47.243Z,100058.66
2022-11-10T09:03:20.029Z,100042.94
2022-11-10T09:05:47.815Z,100066.72
2022-11-10T09:08:15.583Z,100070.75
2022-11-10T09:10:47.659Z,100071.47
2022-11-10T09:13:16.053Z,100071.72
2022-11-10T09:15:44.044Z,100072.06
2022-11-10T09:18:13.325Z,100053.69
2022-11-10T09:20:40.499Z,100067.06
2022-11-10T09:23:09.798Z,100082.66
2022-11-10T09:25:37.446Z,100087.91
2022-11-10T09:28:04.714Z,100075.78
2022-11-10T09:30:32.381Z,100078.47
2022-11-10T09:33:00.546Z,100086.63
2022-11-10T09:35:27.746Z,100105.03
2022-11-10T09:37:54.525Z,100109.88
2022-11-10T09:40:39.594Z,100128.06
2022-11-10T09:43:14.611Z,100118.44
2022-11-10T09:45:47.122Z,100116.84
2022-11-10T09:48:24.670Z,100143.53
2022-11-10T09:50:57.274Z,100146.19
2022-11-10T09:53:47.874Z,100145.75
2022-11-10T09:56:19.718Z,100142.44
2022-11-10T09:58:46.926Z,100148.16
2022-11-10T10:01:26.153Z,100162.69
2022-11-10T10:04:16.752Z,100168.03
2022-11-10T10:07:10.220Z,100162.59
2022-11-10T10:10:01.235Z,100146.63
2022-11-10T10:12:58.791Z,100169.06
2022-11-10T10:16:02.576Z,100167.13
2022-11-10T10:19:15.228Z,100162.03
2022-11-10T10:21:50.461Z,100157.97
2022-11-10T10:24:22.055Z,100154.94
2022-11-10T10:26:55.424Z,100164.09
2022-11-10T10:29:49.460Z,100160.78
2022-11-10T10:32:17.944Z,100145.66
2022-11-10T10:34:46.508Z,100157.13
2022-11-10T10:37:22.650Z,100167.75
2022-11-10T10:39:52.287Z,100169.56
2022-11-10T10:42:31.447Z,100141.03
2022-11-10T10:45:27.733Z,100145.06
2022-11-10T10:47:57.179Z,100175.03
2022-11-10T10:50:28.772Z,100189.91
2022-11-10T10:53:17.811Z,100195.88
2022-11-10T10:58:26.520Z,100201.97
2022-11-10T11:01:01.620Z,100204.31
2022-11-10T11:03:52.122Z,100213.97
2022-11-10T11:06:33.443Z,100210.63
2022-11-10T11:09:15.993Z,100216.13
2022-11-10T11:11:45.489Z,100211.69
2022-11-10T11:14:27.376Z,100211.22
2022-11-10T11:16:59.641Z,100218.94
2022-11-10T11:19:37.903Z,100225.88
2022-11-10T11:22:26.448Z,100216.94
2022-11-10T11:25:05.267Z,100227.97
2022-11-10T11:27:32.013Z,100230.25
2022-11-10T11:30:06.353Z,100211.81
2022-11-10T11:32:45.346Z,100221.69
2022-11-10T11:35:31.889Z,100230.38
2022-11-10T11:38:16.014Z,100232.28
2022-11-10T11:40:47.701Z,100215.25
2022-11-10T11:43:45.453Z,100240.19
2022-11-10T11:46:19.094Z,100240.06
2022-11-10T11:49:21.340Z,100243.63
2022-11-10T11:51:53.898Z,100237.78
2022-11-10T11:54:29.845Z,100237.91
2022-11-10T11:57:16.075Z,100231.31
2022-11-10T11:59:45.510Z,100236.31
2022-11-10T12:02:24.175Z,100242.06
2022-11-10T12:05:20.322Z,100241.44
2022-11-10T12:08:11.621Z,100243.28
2022-11-10T12:11:32.450Z,100254.25
2022-11-10T12:14:25.666Z,100244.94
2022-11-10T12:17:08.889Z,100238.16
2022-11-10T12:20:11.720Z,100240.53
2022-11-10T12:23:10.924Z,100245.44
2022-11-10T12:26:06.921Z,100255.31
2022-11-10T12:28:39.824Z,100243.72
2022-11-10T12:31:15.548Z,100242.38
2022-11-10T12:33:50.052Z,100244.81
2022-11-10T12:36:20.406Z,100246.66
2022-11-10T12:39:11.885Z,100240.03
2022-11-10T12:41:57.580Z,100230.22
2022-11-10T12:44:32.228Z,100227.03
2022-11-10T12:47:05.346Z,100229.28
2022-11-10T12:49:47.420Z,100232.19
2022-11-10T12:52:24.547Z,100222.63
2022-11-10T12:54:51.496Z,100224.59
2022-11-10T12:57:22.599Z,100240.66
2022-11-10T13:00:05.445Z,100229.59
2022-11-10T13:02:40.583Z,100218.38
2022-11-10T13:05:24.741Z,100243.59
2022-11-10T13:08:06.464Z,100214.50
2022-11-10T13:10:33.321Z,100231.09
2022-11-10T13:13:05.763Z,100237.66
2022-11-10T13:15:35.554Z,100233.41
2022-11-10T13:18:02.830Z,100237.28
2022-11-10T13:20:50.214Z,100245.44
2022-11-10T13:23:29.761Z,100241.81
2022-11-10T13:26:11.365Z,100239.84
2022-11-10T13:28:49.171Z,100244.19
2022-11-10T13:31:28.038Z,100247.75
2022-11-10T13:34:26.992Z,100240.38
2022-11-10T13:36:53.765Z,100247.00
2022-11-10T13:39:20.701Z,100249.31
2022-11-10T13:41:54.391Z,100246.88
2022-11-10T13:44:36.358Z,100257.09
2022-11-10T13:47:35.151Z,100251.94
2022-11-10T13:50:08.703Z,100241.47
2022-11-10T13:53:00.131Z,100264.06
2022-11-10T13:55:45.247Z,100261.28
2022-11-10T13:58:23.312Z,100244.50
2022-11-10T14:01:11.321Z,100252.56
2022-11-10T14:03:47.901Z,100255.31
2022-11-10T14:06:20.593Z,100264.44
2022-11-10T14:09:03.148Z,100263.38
2022-11-10T14:11:53.447Z,100260.94
2022-11-10T14:14:40.823Z,100273.91
2022-11-10T14:17:18.414Z,100278.38
2022-11-10T14:19:46.177Z,100285.31
2022-11-10T14:22:28.089Z,100288.63
2022-11-10T14:25:04.487Z,100288.75
2022-11-10T14:27:34.528Z,100297.84
2022-11-10T14:30:21.893Z,100300.09
2022-11-10T14:33:09.273Z,100305.59
2022-11-10T14:35:48.962Z,100300.22
2022-11-10T14:38:21.231Z,100287.66
2022-11-10T14:40:49.313Z,100286.91
2022-11-10T14:43:28.166Z,100305.00
2022-11-10T14:45:55.037Z,100300.09
2022-11-10T14:48:26.640Z,100299.50
2022-11-10T14:50:54.045Z,100300.34
2022-11-10T14:53:23.451Z,100299.50
2022-11-10T14:55:54.708Z,100312.06
2022-11-10T14:58:22.312Z,100306.81
2022-11-10T15:00:49.756Z,100317.50
2022-11-10T15:03:31.440Z,100313.47
2022-11-10T15:05:58.328Z,100308.22
2022-11-10T15:08:26.696Z,100294.03
2022-11-10T15:10:53.808Z,100301.84
2022-11-10T15:13:36.126Z,100304.91
2022-11-10T15:16:26.254Z,100307.34
2022-11-10T15:18:55.029Z,100300.66
2022-11-10T15:21:34.300Z,100328.97
2022-11-10T15:24:05.694Z,100341.31
2022-11-10T15:26:38.495Z,100325.81
2022-11-10T15:29:05.483Z,100339.34
2022-11-10T15:31:34.070Z,100333.47
2022-11-10T15:34:04.632Z,100342.41
2022-11-10T15:36:32.663Z,100331.91
2022-11-10T15:39:05.537Z,100354.88
2022-11-10T15:41:36.352Z,100329.69
2022-11-10T15:44:22.251Z,100350.94
2022-11-10T15:46:53.836Z,100360.94
2022-11-10T15:49:25.589Z,100373.63
2022-11-10T15:51:56.987Z,100366.78
2022-11-10T15:54:27.113Z,100375.13
2022-11-10T15:56:53.854Z,100376.34
2022-11-10T15:59:20.657Z,100380.38
2022-11-10T16:01:47.506Z,100363.88
2022-11-10T16:04:14.242Z,100394.19
2022-11-10T16:06:41.156Z,100394.28
2022-11-10T16:09:11.202Z,100382.22
2022-11-10T16:11:38.205Z,100412.09
2022-11-10T16:14:05.902Z,100380.09
2022-11-10T16:16:32.651Z,100382.78
2022-11-10T16:18:59.434Z,100401.41
2022-11-10T16:21:26.517Z,100407.19
2022-11-10T16:23:53.473Z,100415.06
2022-11-10T16:26:23.901Z,100372.94
2022-11-10T16:28:50.797Z,100414.72
2022-11-10T16:31:19.522Z,100427.22
2022-11-10T16:33:47.104Z,100431.72
2022-11-10T16:36:28.036Z,100442.53
2022-11-10T16:38:55.631Z,100446.38
2022-11-10T16:41:23.062Z,100435.22
2022-11-10T16:43:49.949Z,100449.78
2022-11-10T16:46:22.984Z,100442.81
2022-11-10T16:48:52.869Z,100447.09
2022-11-10T16:51:28.832Z,100441.94
2022-11-10T16:53:56.035Z,100435.53
2022-11-10T16:56:23.269Z,100452.44
2022-11-10T16:58:51.117Z,100464.97
2022-11-10T17:01:22.596Z,100464.41
2022-11-10T17:03:53.461Z,100444.28
2022-11-10T17:06:22.041Z,100469.19
2022-11-10T17:08:52.417Z,100475.13
2022-11-10T17:11:19.498Z,100478.84
2022-11-10T17:13:46.381Z,100472.84
2022-11-10T17:16:29.872Z,100497.78
2022-11-10T17:18:59.135Z,100505.13
2022-11-10T17:21:32.493Z,100503.84
2022-11-10T17:24:00.958Z,100511.75
2022-11-10T17:26:29.214Z,100494.97
2022-11-10T17:28:57.115Z,100494.69
2022-11-10T17:31:24.413Z,100503.38
2022-11-10T17:33:51.537Z,100511.69
2022-11-10T17:36:21.701Z,100506.66
2022-11-10T17:38:49.162Z,100512.84
2022-11-10T17:41:23.785Z,100518.09
2022-11-10T17:43:50.967Z,100510.84
2022-11-10T17:46:17.807Z,100518.50
2022-11-10T17:48:45.694Z,100524.69
2022-11-10T17:51:21.602Z,100535.72
2022-11-10T17:53:50.822Z,100525.38
2022-11-10T17:56:18.266Z,100522.59
2022-11-10T17:58:45.362Z,100525.63
2022-11-10T18:01:16.695Z,100510.28
2022-11-10T18:03:46.744Z,100542.25
2022-11-10T18:06:15.177Z,100547.59
2022-11-10T18:08:42.891Z,100552.94
2022-11-10T18:11:12.864Z,100554.63
2022-11-10T18:13:42.217Z,100561.69
2022-11-10T18:16:12.070Z,100553.75
2022-11-10T18:18:39.615Z,100559.97
2022-11-10T18:21:09.211Z,100557.19
2022-11-10T18:23:36.522Z,100555.78
2022-11-10T18:26:14.062Z,100565.22
2022-11-10T18:28:42.309Z,100559.09
2022-11-10T18:31:13.231Z,100571.97
2022-11-10T18:33:41.149Z,100575.41
2022-11-10T18:36:09.350Z,100572.81
2022-11-10T18:38:36.544Z,100565.19
2022-11-10T18:41:28.193Z,100563.69
2022-11-10T18:43:55.782Z,100592.66
2022-11-10T18:46:23.236Z,100584.91
2022-11-10T18:48:50.868Z,100583.53
2022-11-10T18:51:18.472Z,100584.84
2022-11-10T18:53:45.657Z,100572.72
2022-11-10T18:56:14.979Z,100590.28
2022-11-10T18:58:43.264Z,100593.91
2022-11-10T19:01:12.117Z,100594.84
2022-11-10T19:03:39.717Z,100587.09
2022-11-10T19:06:07.818Z,100574.53
2022-11-10T19:08:35.261Z,100567.66
2022-11-10T19:11:07.527Z,100579.00
2022-11-10T19:13:35.553Z,100573.66
2022-11-10T19:16:08.562Z,100588.13
2022-11-10T19:18:39.027Z,100587.84
2022-11-10T19:21:14.564Z,100572.38
2022-11-10T19:23:42.884Z,100581.53
2022-11-10T19:26:21.885Z,100580.44
2022-11-10T19:28:50.407Z,100591.69
2022-11-10T19:31:23.100Z,100591.78
2022-11-10T19:33:54.322Z,100593.50
2022-11-10T19:36:24.183Z,100608.69
2022-11-10T19:38:53.662Z,100600.13
2022-11-10T19:41:24.044Z,100616.50
2022-11-10T19:43:50.980Z,100620.63
2022-11-10T19:46:24.682Z,100625.88
2022-11-10T19:48:53.561Z,100629.31
2022-11-10T19:51:22.872Z,100629.19
2022-11-10T19:53:58.181Z,100633.28
2022-11-10T19:56:31.469Z,100637.72
2022-11-10T19:58:59.740Z,100644.19
2022-11-10T20:01:27.879Z,100649.16
2022-11-10T20:03:55.437Z,100654.09
2022-11-10T20:06:24.483Z,100656.22
2022-11-10T20:08:51.933Z,100646.09
2022-11-10T20:11:26.061Z,100657.94
2022-11-10T20:13:56.557Z,100658.31
2022-11-10T20:16:24.181Z,100654.94
2022-11-10T20:18:52.331Z,100652.44
2022-11-10T20:21:23.903Z,100659.03
2022-11-10T20:23:55.710Z,100647.31
2022-11-10T20:26:24.781Z,100653.16
2022-11-10T20:28:53.999Z,100649.34
2022-11-10T20:31:24.773Z,100664.13
2022-11-10T20:33:54.479Z,100672.19
2022-11-10T20:36:31.762Z,100661.06
2022-11-10T20:39:00.779Z,100681.09
2022-11-10T20:41:30.007Z,100663.31
2022-11-10T20:43:57.432Z,100668.72
2022-11-10T20:46:52.773Z,100674.31
2022-11-10T20:49:12.221Z,100680.88
2022-11-10T20:51:41.049Z,100681.09
2022-11-10T20:54:08.992Z,100666.91
2022-11-10T20:56:36.037Z,100679.06
2022-11-10T20:59:02.953Z,100678.28
2022-11-10T21:01:31.009Z,100698.72
2022-11-10T21:03:58.621Z,100691.28
2022-11-10T21:06:25.765Z,100703.31
2022-11-10T21:08:54.152Z,100695.25
2022-11-10T21:11:40.160Z,100678.06
2022-11-10T21:14:07.312Z,100689.34
2022-11-10T21:16:34.390Z,100656.53
2022-11-10T21:19:01.784Z,100685.75
2022-11-10T21:21:34.691Z,100688.19
2022-11-10T21:24:04.131Z,100697.59
2022-11-10T21:26:32.774Z,100698.03
2022-11-10T21:28:59.777Z,100683.41
2022-11-10T21:31:26.651Z,100682.47
2022-11-10T21:33:59.436Z,100696.94
2022-11-10T21:36:29.481Z,100695.91
2022-11-10T21:38:57.856Z,100692.25
2022-11-10T21:41:25.401Z,100695.59
2022-11-10T21:43:52.217Z,100681.75
2022-11-10T21:46:19.413Z,100695.59
2022-11-10T21:48:46.152Z,100694.97
2022-11-10T21:51:14.499Z,100696.72
2022-11-10T21:53:42.034Z,100696.84
2022-11-10T21:56:10.382Z,100697.41
2022-11-10T21:58:37.894Z,100706.19
2022-11-10T22:01:06.238Z,100709.78
2022-11-10T22:03:34.586Z,100689.97
2022-11-10T22:06:10.620Z,100716.84
2022-11-10T22:08:38.629Z,100710.88
2022-11-10T22:11:24.812Z,100721.53
2022-11-10T22:14:10.462Z,100726.88
2022-11-10T22:17:06.670Z,100734.47
2022-11-10T22:19:35.255Z,100737.69
2022-11-10T22:22:03.931Z,100728.06
2022-11-10T22:24:30.840Z,100725.63
2022-11-10T22:26:59.880Z,100728.75
2022-11-10T22:29:31.837Z,100733.00
2022-11-10T22:32:02.629Z,100741.50
2022-11-10T22:34:29.836Z,100731.94
2022-11-10T22:36:57.228Z,100723.72
2022-11-10T22:39:43.931Z,100728.50
2022-11-10T22:42:31.942Z,100732.56
2022-11-10T22:44:58.817Z,100734.13
2022-11-10T22:47:25.623Z,100715.09
2022-11-10T22:49:52.320Z,100726.22
2022-11-10T22:52:19.059Z,100737.34
2022-11-10T22:54:45.800Z,100736.41
2022-11-10T22:57:12.571Z,100711.75
2022-11-10T22:59:39.257Z,100744.25
2022-11-10T23:02:05.959Z,100735.63
2022-11-10T23:04:32.738Z,100739.22
2022-11-10T23:06:59.499Z,100725.81
2022-11-10T23:09:26.260Z,100730.56
2022-11-10T23:11:52.959Z,100745.56
2022-11-10T23:14:19.651Z,100740.78
2022-11-10T23:16:46.418Z,100752.09
2022-11-10T23:19:13.188Z,100744.09
2022-11-10T23:21:40.005Z,100754.28
2022-11-10T23:24:07.098Z,100767.34
2022-11-10T23:26:34.989Z,100754.72
2022-11-10T23:29:01.783Z,100752.56
2022-11-10T23:31:28.812Z,100747.47
2022-11-10T23:33:56.771Z,100748.25
2022-11-10T23:36:25.448Z,100747.69
2022-11-10T23:38:52.431Z,100738.03
2022-11-10T23:41:21.182Z,100752.00
2022-11-10T23:43:47.980Z,100748.41
2022-11-10T23:46:15.320Z,100735.88
2022-11-10T23:48:42.622Z,100739.03
2022-11-10T23:51:11.843Z,100750.69
2022-11-10T23:53:38.662Z,100730.78
2022-11-10T23:56:09.005Z,100721.72
2022-11-10T23:58:35.840Z,100732.13
